Time;durP1;ratioP1;P1;durP2;ratioP2;P2;SDS_P1;SDS_P2;PMS_P1;PMS_P2;Temp;Humidity;BMP_temperature;BMP_pressure;BME280_temperature;BME280_humidity;BME280_pressure;Samples;Min_cycle;Max_cycle;Signal;HPM_P1;HPM_P2
2023/07/09 00:02:13;;;;;;;1.70;1.70;;;23.80;71.20;;;;;;5103177;27;43437;-71
2023/07/09 00:04:41;;;;;;;1.80;1.80;;;23.90;71.10;;;;;;5088062;27;43514;-71
2023/07/09 00:07:15;;;;;;;1.43;1.43;;;24.00;70.80;;;;;;5106002;27;43339;-72
2023/07/09 00:09:45;;;;;;;1.67;1.67;;;24.10;70.40;;;;;;5102309;27;44215;-71
2023/07/09 00:12:14;;;;;;;1.60;1.60;;;24.20;69.90;;;;;;5105294;27;43379;-72
2023/07/09 00:14:42;;;;;;;1.73;1.73;;;24.30;69.60;;;;;;5101561;27;43402;-71
2023/07/09 00:17:12;;;;;;;1.57;1.57;;;24.30;69.60;;;;;;5107491;27;43509;-71
2023/07/09 00:19:40;;;;;;;1.47;1.47;;;24.20;69.70;;;;;;5104232;27;44121;-71
2023/07/09 00:22:17;;;;;;;1.67;1.67;;;24.10;69.90;;;;;;5106295;27;43399;-72
2023/07/09 00:24:51;;;;;;;2.10;2.00;;;24.10;70.70;;;;;;5102372;27;43325;-72
2023/07/09 00:27:20;;;;;;;1.60;1.60;;;24.10;70.00;;;;;;5108356;27;43398;-72
2023/07/09 00:29:48;;;;;;;1.53;1.53;;;24.10;70.30;;;;;;5084100;27;46193;-72
2023/07/09 00:32:20;;;;;;;1.70;1.70;;;24.00;70.50;;;;;;5085148;27;44858;-72
2023/07/09 00:34:49;;;;;;;1.47;1.47;;;24.00;70.60;;;;;;5079467;27;44230;-72
2023/07/09 00:37:19;;;;;;;1.50;1.50;;;24.00;70.60;;;;;;5089318;27;43575;-72
2023/07/09 00:39:49;;;;;;;1.57;1.57;;;23.90;70.70;;;;;;5086178;27;45595;-72
2023/07/09 00:42:19;;;;;;;1.60;1.60;;;23.90;71.60;;;;;;5082690;27;45108;-72
2023/07/09 00:44:48;;;;;;;1.73;1.73;;;23.90;70.90;;;;;;5084579;27;43384;-72
2023/07/09 00:47:24;;;;;;;1.63;1.63;;;24.00;70.80;;;;;;5106703;27;43495;-72
2023/07/09 00:50:03;;;;;;;1.93;1.93;;;24.10;70.40;;;;;;5077264;27;45925;-71
2023/07/09 00:52:35;;;;;;;1.63;1.63;;;24.20;70.10;;;;;;5106715;27;43421;-72
2023/07/09 00:55:07;;;;;;;1.70;1.70;;;24.10;69.80;;;;;;5082072;28;43381;-72
2023/07/09 00:57:38;;;;;;;1.67;1.67;;;24.10;69.90;;;;;;5095663;27;43441;-72
2023/07/09 01:00:09;;;;;;;1.60;1.60;;;24.10;70.20;;;;;;5109327;27;43591;-72
2023/07/09 01:02:38;;;;;;;1.70;1.70;;;24.00;70.40;;;;;;5072968;22;43582;-75
2023/07/09 01:05:06;;;;;;;1.70;1.70;;;24.00;70.50;;;;;;5077622;28;43377;-74
2023/07/09 01:07:34;;;;;;;1.90;1.90;;;24.00;70.50;;;;;;5082471;28;43458;-75
2023/07/09 01:10:02;;;;;;;1.70;1.70;;;24.00;70.70;;;;;;5087583;28;43856;-74
2023/07/09 01:12:31;;;;;;;1.70;1.70;;;23.90;70.80;;;;;;5072597;28;43402;-74
2023/07/09 01:15:01;;;;;;;1.67;1.67;;;24.00;70.90;;;;;;5082614;28;43504;-75
2023/07/09 01:17:29;;;;;;;1.43;1.43;;;24.00;70.60;;;;;;5080114;28;43439;-74
2023/07/09 01:19:57;;;;;;;2.00;2.00;;;24.10;70.30;;;;;;5068993;28;43613;-74
2023/07/09 01:22:27;;;;;;;1.60;1.60;;;24.10;70.30;;;;;;5068821;28;43388;-74
2023/07/09 01:25:01;;;;;;;1.80;1.80;;;24.10;70.30;;;;;;5071069;28;43473;-74
2023/07/09 01:27:31;;;;;;;1.50;1.50;;;24.00;70.40;;;;;;5086335;28;43536;-74
2023/07/09 01:29:59;;;;;;;1.63;1.63;;;24.00;70.30;;;;;;5079894;28;43753;-75
2023/07/09 01:32:27;;;;;;;1.90;1.90;;;24.00;70.30;;;;;;5079699;28;43397;-74
2023/07/09 01:34:58;;;;;;;1.60;1.60;;;24.00;70.40;;;;;;5086990;28;43940;-74
2023/07/09 01:37:29;;;;;;;1.60;1.60;;;24.00;70.70;;;;;;5069853;28;44023;-74
2023/07/09 01:39:57;;;;;;;1.63;1.63;;;24.00;71.40;;;;;;5067515;28;45851;-74
2023/07/09 01:42:26;;;;;;;1.60;1.60;;;23.90;70.60;;;;;;5083654;28;43804;-74
2023/07/09 01:44:54;;;;;;;1.67;1.67;;;23.90;70.70;;;;;;5071066;28;43456;-75
2023/07/09 01:47:23;;;;;;;1.70;1.70;;;23.90;70.90;;;;;;5069585;28;43475;-75
2023/07/09 01:49:56;;;;;;;1.70;1.70;;;23.90;71.00;;;;;;5071207;28;43618;-75
2023/07/09 01:52:27;;;;;;;1.83;1.83;;;23.90;70.80;;;;;;5066233;28;44922;-75
2023/07/09 01:54:56;;;;;;;2.07;1.90;;;24.00;70.50;;;;;;5083940;28;43944;-75
2023/07/09 01:57:25;;;;;;;1.63;1.63;;;24.20;70.10;;;;;;5070412;28;43400;-74
2023/07/09 01:59:55;;;;;;;1.60;1.60;;;24.30;69.90;;;;;;5058157;28;45704;-74
2023/07/09 02:02:23;;;;;;;1.77;1.77;;;24.20;69.80;;;;;;5078148;28;43499;-74
2023/07/09 02:04:52;;;;;;;1.60;1.60;;;24.20;69.90;;;;;;5076350;28;43405;-74
2023/07/09 02:07:20;;;;;;;1.67;1.67;;;24.10;70.20;;;;;;5069966;28;43418;-75
2023/07/09 02:09:48;;;;;;;1.83;1.83;;;24.10;70.20;;;;;;5068141;28;43743;-75
2023/07/09 02:12:18;;;;;;;1.50;1.50;;;24.10;70.30;;;;;;5072539;28;43965;-74
2023/07/09 02:14:46;;;;;;;1.60;1.60;;;24.00;70.40;;;;;;5056219;28;43463;-73
2023/07/09 02:17:15;;;;;;;1.70;1.70;;;24.00;70.70;;;;;;5070794;28;43477;-74
2023/07/09 02:19:43;;;;;;;1.70;1.70;;;24.00;70.80;;;;;;5085333;28;43612;-74
2023/07/09 02:22:11;;;;;;;1.60;1.60;;;24.00;70.80;;;;;;5085380;28;43436;-73
2023/07/09 02:24:39;;;;;;;1.70;1.70;;;23.90;70.70;;;;;;5066526;28;44013;-74
2023/07/09 02:27:10;;;;;;;1.63;1.63;;;23.90;70.80;;;;;;5082221;28;43403;-74
2023/07/09 02:29:39;;;;;;;1.50;1.50;;;23.90;71.10;;;;;;5068150;28;43840;-73
2023/07/09 02:32:08;;;;;;;1.67;1.67;;;23.90;71.00;;;;;;5080617;28;43477;-73
2023/07/09 02:34:36;;;;;;;2.00;2.00;;;24.00;70.80;;;;;;5086246;28;43451;-75
2023/07/09 02:37:05;;;;;;;1.80;1.80;;;24.10;70.40;;;;;;5070165;28;43376;-74
2023/07/09 02:39:33;;;;;;;2.00;2.00;;;24.10;70.10;;;;;;5062475;28;45710;-75
2023/07/09 02:42:02;;;;;;;1.50;1.50;;;24.10;69.90;;;;;;5066770;28;43414;-74
2023/07/09 02:44:30;;;;;;;1.83;1.83;;;24.10;70.00;;;;;;5066990;28;43435;-73
2023/07/09 02:47:00;;;;;;;1.70;1.70;;;24.10;70.20;;;;;;5070196;28;43427;-74
2023/07/09 02:49:29;;;;;;;1.60;1.60;;;24.00;70.50;;;;;;5065094;28;45438;-74
2023/07/09 02:51:57;;;;;;;1.60;1.60;;;24.00;70.40;;;;;;5081433;28;43997;-74
2023/07/09 02:54:25;;;;;;;1.73;1.73;;;24.00;70.40;;;;;;5069219;28;43412;-74
2023/07/09 02:56:53;;;;;;;1.73;1.73;;;24.00;70.50;;;;;;5056739;28;43411;-74
2023/07/09 02:59:21;;;;;;;4.23;2.37;;;23.90;70.60;;;;;;5061164;28;45758;-74
2023/07/09 03:01:49;;;;;;;1.90;1.90;;;23.90;70.60;;;;;;5066120;28;44863;-74
2023/07/09 03:04:20;;;;;;;1.60;1.60;;;23.90;70.50;;;;;;5069614;28;44061;-74
2023/07/09 03:06:48;;;;;;;1.80;1.80;;;23.90;70.50;;;;;;5059992;28;43479;-74
2023/07/09 03:09:16;;;;;;;1.83;1.83;;;23.90;70.80;;;;;;5067423;28;45740;-74
2023/07/09 03:11:44;;;;;;;1.80;1.80;;;23.90;70.90;;;;;;5086462;28;43370;-74
2023/07/09 03:14:12;;;;;;;1.80;1.80;;;24.00;70.90;;;;;;5064766;28;43939;-74
2023/07/09 03:16:40;;;;;;;1.60;1.60;;;24.10;70.50;;;;;;5062429;28;43443;-74
2023/07/09 03:19:08;;;;;;;1.97;1.90;;;24.20;70.10;;;;;;5072053;28;45974;-74
2023/07/09 03:21:37;;;;;;;2.30;2.20;;;24.30;69.80;;;;;;5072474;28;44528;-75
2023/07/09 03:24:06;;;;;;;3.70;2.10;;;24.30;69.60;;;;;;5087038;28;43999;-74
2023/07/09 03:26:34;;;;;;;3.27;2.20;;;24.20;69.50;;;;;;5090572;28;43288;-74
2023/07/09 03:29:02;;;;;;;3.43;2.30;;;24.10;69.50;;;;;;5069722;28;43833;-74
2023/07/09 03:31:30;;;;;;;3.57;3.30;;;24.10;70.00;;;;;;5071069;28;43797;-75
2023/07/09 03:33:58;;;;;;;3.47;3.27;;;24.00;70.00;;;;;;5067638;28;43430;-75
2023/07/09 03:36:27;;;;;;;4.60;3.60;;;23.90;70.10;;;;;;5090305;28;43418;-74
2023/07/09 03:38:56;;;;;;;3.90;3.60;;;23.90;70.10;;;;;;5089961;28;43891;-74
2023/07/09 03:41:24;;;;;;;4.10;3.70;;;23.90;70.40;;;;;;5071173;28;44586;-74
2023/07/09 03:43:53;;;;;;;5.77;3.73;;;23.80;70.60;;;;;;5072023;28;43487;-74
2023/07/09 03:46:21;;;;;;;4.20;3.60;;;23.80;70.70;;;;;;5078673;28;43996;-74
2023/07/09 03:48:50;;;;;;;4.67;3.90;;;23.80;70.80;;;;;;5074104;28;43845;-74
2023/07/09 03:51:18;;;;;;;5.00;3.83;;;23.80;70.90;;;;;;5070301;28;43594;-74
2023/07/09 03:53:46;;;;;;;8.07;4.47;;;23.80;71.10;;;;;;5079154;28;43404;-74
2023/07/09 03:56:16;;;;;;;7.03;4.03;;;23.80;71.80;;;;;;5071817;28;43481;-74
2023/07/09 03:58:43;;;;;;;9.67;4.43;;;24.00;70.90;;;;;;5084131;28;43980;-74
2023/07/09 04:01:11;;;;;;;6.50;4.30;;;24.10;70.50;;;;;;5082664;28;43465;-75
2023/07/09 04:03:39;;;;;;;6.03;4.00;;;24.30;70.00;;;;;;5070536;28;43387;-74
2023/07/09 04:06:07;;;;;;;6.63;4.70;;;24.50;69.20;;;;;;5082346;28;44134;-74
2023/07/09 04:08:35;;;;;;;6.22;4.63;;;24.70;68.50;;;;;;5083228;28;43583;-73
2023/07/09 04:11:03;;;;;;;7.10;4.45;;;25.00;67.80;;;;;;5083660;28;43391;-74
2023/07/09 04:13:33;;;;;;;5.57;4.30;;;25.10;67.00;;;;;;5074752;28;43321;-74
2023/07/09 04:16:01;;;;;;;5.95;4.72;;;25.30;66.50;;;;;;5085988;28;43487;-74
2023/07/09 04:18:30;;;;;;;6.72;4.05;;;25.40;66.10;;;;;;5086068;28;44035;-75
2023/07/09 04:20:57;;;;;;;4.95;4.10;;;25.50;65.70;;;;;;5067044;28;43429;-75
2023/07/09 04:23:25;;;;;;;4.25;3.85;;;25.60;65.40;;;;;;5064791;28;44107;-75
2023/07/09 04:25:53;;;;;;;5.10;4.32;;;25.60;65.20;;;;;;5072826;28;43777;-75
2023/07/09 04:28:21;;;;;;;4.45;4.03;;;25.60;65.40;;;;;;5087821;28;43587;-75
2023/07/09 04:30:51;;;;;;;5.97;4.03;;;25.40;65.70;;;;;;5082891;28;43423;-74
2023/07/09 04:33:19;;;;;;;6.80;4.40;;;25.20;66.20;;;;;;5068498;28;43406;-74
2023/07/09 04:35:48;;;;;;;6.18;3.75;;;25.10;66.90;;;;;;5089051;28;43434;-75
2023/07/09 04:38:16;;;;;;;4.70;4.30;;;25.00;67.30;;;;;;5054826;28;45714;-74
2023/07/09 04:40:44;;;;;;;4.20;3.90;;;24.80;67.40;;;;;;5061065;28;44809;-74
2023/07/09 04:43:12;;;;;;;4.05;3.72;;;24.70;67.60;;;;;;5074932;28;43417;-74
2023/07/09 04:45:40;;;;;;;6.15;4.00;;;24.60;68.10;;;;;;5089565;28;43498;-74
2023/07/09 04:48:10;;;;;;;4.22;3.80;;;24.60;68.50;;;;;;5070625;28;45680;-73
2023/07/09 04:50:40;;;;;;;4.13;3.73;;;24.70;68.60;;;;;;5065858;28;43395;-75
2023/07/09 04:53:08;;;;;;;4.23;3.80;;;24.70;68.30;;;;;;5069843;28;43389;-74
2023/07/09 04:55:36;;;;;;;4.55;4.05;;;24.70;68.10;;;;;;5083748;28;43382;-75
2023/07/09 04:58:04;;;;;;;4.35;3.92;;;24.70;67.90;;;;;;5069049;28;43598;-75
2023/07/09 05:00:32;;;;;;;3.90;3.60;;;24.60;68.10;;;;;;5085725;28;44123;-75
2023/07/09 05:03:00;;;;;;;3.90;3.60;;;24.50;68.40;;;;;;5088213;28;43522;-74
2023/07/09 05:05:29;;;;;;;4.40;4.00;;;24.50;68.70;;;;;;5084523;28;43396;-74
2023/07/09 05:07:57;;;;;;;3.90;3.60;;;24.40;68.70;;;;;;5089492;28;43992;-74
2023/07/09 05:10:25;;;;;;;4.47;4.10;;;24.40;68.70;;;;;;5079768;28;43395;-74
2023/07/09 05:12:55;;;;;;;3.90;3.60;;;24.30;69.00;;;;;;5069390;28;43382;-75
2023/07/09 05:15:23;;;;;;;3.80;3.60;;;24.30;69.30;;;;;;5069900;28;43875;-75
2023/07/09 05:17:52;;;;;;;3.72;3.45;;;24.30;69.40;;;;;;5061961;28;46260;-75
2023/07/09 05:20:21;;;;;;;3.78;3.50;;;24.20;69.40;;;;;;5050589;28;44728;-75
2023/07/09 05:22:50;;;;;;;4.07;3.57;;;24.20;69.60;;;;;;5071820;28;43865;-74
2023/07/09 05:25:18;;;;;;;4.03;3.70;;;24.10;69.70;;;;;;5083921;28;43383;-75
2023/07/09 05:27:46;;;;;;;3.67;3.47;;;24.20;69.60;;;;;;5088166;28;43606;-74
2023/07/09 05:30:14;;;;;;;3.80;3.23;;;24.10;69.40;;;;;;5088965;28;43574;-75
2023/07/09 05:32:42;;;;;;;3.73;3.53;;;24.10;69.70;;;;;;5088045;28;43366;-75
2023/07/09 05:35:10;;;;;;;3.63;3.33;;;24.10;70.20;;;;;;5089278;28;43438;-75
2023/07/09 05:37:39;;;;;;;3.47;3.27;;;24.10;70.10;;;;;;5086756;28;43694;-75
2023/07/09 05:40:10;;;;;;;3.73;3.53;;;24.30;69.90;;;;;;5067941;28;43342;-74
2023/07/09 05:42:38;;;;;;;3.63;3.37;;;24.40;69.60;;;;;;5042125;28;44069;-75
2023/07/09 05:45:07;;;;;;;3.53;3.23;;;24.50;69.10;;;;;;5069519;28;43885;-75
2023/07/09 05:47:35;;;;;;;3.50;3.20;;;24.50;68.90;;;;;;5072986;28;43600;-75
2023/07/09 05:50:03;;;;;;;3.23;3.00;;;24.50;68.80;;;;;;5063208;28;44725;-75
2023/07/09 05:52:31;;;;;;;3.43;3.23;;;24.40;69.00;;;;;;5068865;28;43392;-74
2023/07/09 05:55:00;;;;;;;3.17;3.07;;;24.40;69.30;;;;;;5088116;28;43440;-75
2023/07/09 05:57:29;;;;;;;3.90;3.70;;;24.30;69.00;;;;;;5068630;28;45922;-75
2023/07/09 05:59:57;;;;;;;3.40;3.30;;;24.30;69.30;;;;;;5083536;28;44020;-74
2023/07/09 06:02:25;;;;;;;3.13;3.03;;;24.20;69.30;;;;;;5084115;28;43423;-74
2023/07/09 06:04:53;;;;;;;3.63;3.40;;;24.20;69.80;;;;;;5079607;28;44178;-74
2023/07/09 06:07:22;;;;;;;3.33;3.13;;;24.20;69.80;;;;;;5077787;28;43605;-75
2023/07/09 06:09:52;;;;;;;3.33;3.13;;;24.30;69.60;;;;;;5068037;28;43535;-74
2023/07/09 06:12:20;;;;;;;3.10;3.00;;;24.30;69.30;;;;;;5065008;28;43281;-74
2023/07/09 06:14:49;;;;;;;3.13;3.03;;;24.30;69.40;;;;;;5064585;28;43409;-74
2023/07/09 06:17:17;;;;;;;3.50;3.30;;;24.20;69.40;;;;;;5085178;28;43523;-75
2023/07/09 06:19:45;;;;;;;3.47;3.27;;;24.20;69.80;;;;;;5086559;28;43404;-75
2023/07/09 06:22:13;;;;;;;3.60;3.40;;;24.20;69.50;;;;;;5088054;28;44074;-75
2023/07/09 06:24:41;;;;;;;3.10;3.00;;;24.20;69.60;;;;;;5071465;28;43412;-74
2023/07/09 06:27:10;;;;;;;3.43;3.17;;;24.10;70.00;;;;;;5068261;28;43854;-74
2023/07/09 06:29:38;;;;;;;3.20;3.00;;;24.10;70.10;;;;;;5087644;28;43400;-75
2023/07/09 06:32:08;;;;;;;3.27;3.07;;;24.10;69.90;;;;;;5087425;28;43377;-74
2023/07/09 06:34:36;;;;;;;3.07;2.97;;;24.10;70.10;;;;;;5073300;28;43756;-74
2023/07/09 06:37:04;;;;;;;3.37;3.17;;;24.00;70.30;;;;;;5065095;28;43947;-74
2023/07/09 06:39:32;;;;;;;3.10;3.00;;;24.00;70.50;;;;;;5071205;28;43371;-75
2023/07/09 06:42:00;;;;;;;3.27;3.17;;;24.00;70.30;;;;;;5070011;28;43435;-74
2023/07/09 06:44:54;;;;;;;3.00;2.90;;;24.00;70.40;;;;;;5082655;28;43613;-74
2023/07/09 06:47:24;;;;;;;3.60;3.40;;;24.00;70.50;;;;;;5087632;28;45110;-74
2023/07/09 06:49:52;;;;;;;3.10;3.00;;;23.90;70.70;;;;;;5084098;28;43979;-74
2023/07/09 06:52:20;;;;;;;3.30;3.20;;;24.00;70.80;;;;;;5086864;28;43740;-74
2023/07/09 06:54:49;;;;;;;3.37;3.17;;;24.10;70.50;;;;;;5074118;28;43387;-75
2023/07/09 06:57:17;;;;;;;3.00;2.90;;;24.20;70.10;;;;;;5088447;28;43656;-74
2023/07/09 06:59:45;;;;;;;3.53;3.33;;;24.30;69.70;;;;;;5069249;28;45026;-74
2023/07/09 07:02:13;;;;;;;2.77;2.67;;;24.40;69.50;;;;;;5079153;28;43497;-73
2023/07/09 07:04:42;;;;;;;2.97;2.87;;;24.40;69.50;;;;;;5067900;28;43981;-75
2023/07/09 07:07:10;;;;;;;3.20;3.10;;;24.30;69.60;;;;;;5058384;28;47179;-74
2023/07/09 07:09:38;;;;;;;3.00;2.90;;;24.30;69.90;;;;;;5076030;28;43347;-75
2023/07/09 07:12:07;;;;;;;3.10;3.00;;;24.20;69.80;;;;;;5075255;28;43368;-74
2023/07/09 07:14:35;;;;;;;2.80;2.70;;;24.20;69.90;;;;;;5086659;28;43331;-75
2023/07/09 07:17:03;;;;;;;2.80;2.70;;;24.10;70.10;;;;;;5072206;28;45699;-74
2023/07/09 07:19:32;;;;;;;2.90;2.80;;;24.10;70.50;;;;;;5072230;28;44434;-74
2023/07/09 07:22:01;;;;;;;2.90;2.80;;;24.10;70.50;;;;;;5072058;28;43362;-74
2023/07/09 07:24:29;;;;;;;2.53;2.43;;;24.10;70.50;;;;;;5090453;28;43401;-75
2023/07/09 07:26:57;;;;;;;2.40;2.30;;;24.00;70.60;;;;;;5090272;28;43972;-74
2023/07/09 07:29:25;;;;;;;2.70;2.60;;;24.00;70.90;;;;;;5090580;28;43411;-75
2023/07/09 07:31:54;;;;;;;2.90;2.80;;;24.00;70.70;;;;;;5079071;28;43395;-74
2023/07/09 07:34:22;;;;;;;2.40;2.30;;;24.10;70.30;;;;;;5067624;28;43965;-74
2023/07/09 07:36:50;;;;;;;2.65;2.55;;;24.30;70.20;;;;;;5089990;28;43749;-75
2023/07/09 07:39:20;;;;;;;2.63;2.53;;;24.30;69.80;;;;;;5066254;28;44601;-75
2023/07/09 07:41:50;;;;;;;2.70;2.60;;;24.30;69.70;;;;;;5073545;28;44031;-74
2023/07/09 07:44:18;;;;;;;2.93;2.83;;;24.30;69.70;;;;;;5086922;28;43417;-74
2023/07/09 07:46:46;;;;;;;2.60;2.50;;;24.20;70.10;;;;;;5083041;28;43597;-74
2023/07/09 07:49:14;;;;;;;2.33;2.33;;;24.20;70.20;;;;;;5090685;27;43466;-75
2023/07/09 07:51:44;;;;;;;2.40;2.40;;;24.10;70.00;;;;;;5073110;28;43424;-75
2023/07/09 07:54:12;;;;;;;2.70;2.60;;;24.10;70.20;;;;;;5077330;28;43454;-74
2023/07/09 07:56:41;;;;;;;2.70;2.60;;;24.10;70.50;;;;;;5070188;28;43593;-75
2023/07/09 07:59:10;;;;;;;2.80;2.70;;;24.00;70.70;;;;;;5074328;28;43435;-75
2023/07/09 08:01:37;;;;;;;2.57;2.47;;;24.00;70.70;;;;;;5090178;28;43392;-75
2023/07/09 08:04:06;;;;;;;2.60;2.50;;;24.00;70.70;;;;;;5065838;28;43738;-74
2023/07/09 08:06:34;;;;;;;2.80;2.60;;;24.00;70.70;;;;;;5081451;28;43863;-74
2023/07/09 08:09:02;;;;;;;2.77;2.67;;;24.00;71.10;;;;;;5082679;28;43787;-75
2023/07/09 08:11:32;;;;;;;2.80;2.70;;;23.90;70.90;;;;;;5089882;28;43364;-74
2023/07/09 08:14:01;;;;;;;2.50;2.50;;;24.00;70.70;;;;;;5076991;28;43788;-74
2023/07/09 08:16:30;;;;;;;2.97;2.87;;;24.10;70.30;;;;;;5070250;28;43808;-74
2023/07/09 08:18:58;;;;;;;2.50;2.40;;;24.30;70.00;;;;;;5080074;28;43933;-75
2023/07/09 08:21:26;;;;;;;2.33;2.23;;;24.30;69.90;;;;;;5059926;28;43471;-74
2023/07/09 08:23:54;;;;;;;2.67;2.57;;;24.20;69.80;;;;;;5068395;28;43494;-76
2023/07/09 08:26:23;;;;;;;2.70;2.60;;;24.20;70.10;;;;;;5086572;28;43552;-74
2023/07/09 08:28:51;;;;;;;2.37;2.37;;;24.10;70.20;;;;;;5082878;28;43442;-75
2023/07/09 08:31:21;;;;;;;2.50;2.40;;;24.10;70.30;;;;;;5089461;28;43398;-75
2023/07/09 08:33:49;;;;;;;2.37;2.30;;;24.10;70.40;;;;;;5051253;28;43617;-75
2023/07/09 08:36:17;;;;;;;2.50;2.50;;;24.00;70.50;;;;;;5069531;28;44060;-74
2023/07/09 08:38:45;;;;;;;2.40;2.30;;;24.00;70.80;;;;;;5085337;28;43467;-75
2023/07/09 08:41:32;;;;;;;2.57;2.47;;;24.00;70.70;;;;;;5079512;28;43444;-75
2023/07/09 08:44:10;;;;;;;2.20;2.20;;;24.00;70.70;;;;;;5087463;28;43616;-75
2023/07/09 08:46:46;;;;;;;2.40;2.40;;;24.00;70.80;;;;;;5055009;28;43809;-74
2023/07/09 08:49:16;;;;;;;2.53;2.53;;;23.90;71.00;;;;;;5084393;28;43523;-74
2023/07/09 08:51:44;;;;;;;2.40;2.30;;;23.90;71.00;;;;;;5062182;28;43416;-73
2023/07/09 08:54:15;;;;;;;2.50;2.40;;;23.90;70.80;;;;;;5082445;28;43360;-74
2023/07/09 08:56:43;;;;;;;2.33;2.33;;;23.90;70.90;;;;;;5080667;28;45144;-74
2023/07/09 08:59:11;;;;;;;2.17;2.10;;;23.90;71.20;;;;;;5058905;28;43540;-74
2023/07/09 09:01:43;;;;;;;2.53;2.43;;;23.90;71.10;;;;;;5060389;28;43357;-73
2023/07/09 09:04:16;;;;;;;2.40;2.40;;;24.00;70.80;;;;;;5076793;28;43466;-73
2023/07/09 09:06:45;;;;;;;2.33;2.33;;;24.10;70.40;;;;;;5082679;28;43749;-74
2023/07/09 09:09:18;;;;;;;2.30;2.23;;;24.20;70.00;;;;;;5065003;28;44834;-74
2023/07/09 09:11:47;;;;;;;2.37;2.30;;;24.30;69.80;;;;;;5079153;28;43426;-73
2023/07/09 09:14:24;;;;;;;2.33;2.23;;;24.30;69.80;;;;;;5057188;28;44127;-74
2023/07/09 09:16:53;;;;;;;2.50;2.40;;;24.20;70.00;;;;;;5071748;28;43763;-74
2023/07/09 09:19:23;;;;;;;2.40;2.37;;;24.10;70.20;;;;;;5070420;28;44826;-73
2023/07/09 09:21:53;;;;;;;2.40;2.30;;;24.10;70.30;;;;;;5069745;28;43472;-75
2023/07/09 09:24:24;;;;;;;2.33;2.33;;;24.10;70.30;;;;;;5081661;28;43978;-74
2023/07/09 09:26:52;;;;;;;2.30;2.30;;;24.00;70.40;;;;;;5087052;28;44218;-74
2023/07/09 09:29:20;;;;;;;2.17;2.17;;;24.00;70.80;;;;;;5067813;28;43685;-74
2023/07/09 09:31:51;;;;;;;2.67;2.47;;;24.00;70.80;;;;;;5066906;28;43344;-73
2023/07/09 09:34:21;;;;;;;2.20;2.20;;;24.00;70.80;;;;;;5087060;28;43901;-74
2023/07/09 09:36:49;;;;;;;2.40;2.30;;;24.00;70.90;;;;;;5070824;28;43753;-76
2023/07/09 09:39:17;;;;;;;2.10;2.10;;;23.90;71.00;;;;;;5087221;28;43366;-74
2023/07/09 09:41:45;;;;;;;2.33;2.33;;;23.90;71.00;;;;;;5077311;28;43392;-74
2023/07/09 09:44:21;;;;;;;2.20;2.10;;;24.00;70.80;;;;;;5082335;28;44000;-75
2023/07/09 09:46:49;;;;;;;2.30;2.30;;;24.10;70.40;;;;;;5059663;28;46561;-75
2023/07/09 09:49:17;;;;;;;2.50;2.40;;;24.20;70.10;;;;;;5082743;28;44067;-74
2023/07/09 09:51:47;;;;;;;2.40;2.40;;;24.30;69.90;;;;;;5061448;28;43419;-74
2023/07/09 09:54:19;;;;;;;2.27;2.27;;;24.30;70.00;;;;;;5076064;28;43507;-75
2023/07/09 09:56:48;;;;;;;2.17;2.07;;;24.20;70.10;;;;;;5060968;28;45544;-74
2023/07/09 09:59:19;;;;;;;2.30;2.30;;;24.10;70.20;;;;;;5059152;28;43372;-75
2023/07/09 10:01:47;;;;;;;2.20;2.10;;;24.10;70.30;;;;;;5066301;28;43438;-75
2023/07/09 10:04:19;;;;;;;2.27;2.27;;;24.10;70.40;;;;;;5068613;28;43727;-75
2023/07/09 10:06:51;;;;;;;2.50;2.40;;;24.10;70.60;;;;;;5082818;28;43775;-74
2023/07/09 10:09:25;;;;;;;2.27;2.27;;;24.00;70.60;;;;;;5068174;28;44895;-73
2023/07/09 10:11:59;;;;;;;2.37;2.30;;;24.00;70.70;;;;;;5080379;28;43760;-74
2023/07/09 10:14:33;;;;;;;2.27;2.23;;;24.00;70.80;;;;;;5073582;28;44090;-73
2023/07/09 10:17:05;;;;;;;2.20;2.20;;;24.00;70.90;;;;;;5076360;28;43947;-74
2023/07/09 10:19:37;;;;;;;2.00;2.00;;;24.00;71.60;;;;;;5068588;28;45105;-74
2023/07/09 10:22:07;;;;;;;2.40;2.30;;;24.00;70.70;;;;;;5070096;28;43385;-76
2023/07/09 10:24:43;;;;;;;2.00;2.00;;;24.10;70.60;;;;;;5087128;28;43358;-74
2023/07/09 10:27:13;;;;;;;2.37;2.37;;;24.20;70.10;;;;;;5070355;28;43617;-76
2023/07/09 10:29:53;;;;;;;2.13;2.13;;;24.30;69.90;;;;;;5063263;28;43428;-73
2023/07/09 10:32:39;;;;;;;2.20;2.20;;;24.30;70.00;;;;;;5068299;28;44027;-74
2023/07/09 10:35:10;;;;;;;2.10;2.10;;;24.30;70.10;;;;;;5069467;28;43459;-73
2023/07/09 10:37:50;;;;;;;1.97;1.97;;;24.20;70.30;;;;;;5083529;28;43590;-74
2023/07/09 10:40:31;;;;;;;1.93;1.93;;;24.20;70.40;;;;;;5066971;28;44990;-74
2023/07/09 10:43:00;;;;;;;1.90;1.90;;;24.10;70.30;;;;;;5049627;28;44428;-74
2023/07/09 10:45:30;;;;;;;2.47;2.37;;;24.10;70.60;;;;;;5074669;28;43366;-74
2023/07/09 10:48:00;;;;;;;2.00;2.00;;;24.10;70.80;;;;;;5078196;28;43734;-72
2023/07/09 10:50:32;;;;;;;2.00;2.00;;;24.10;70.70;;;;;;5084212;28;43464;-73
2023/07/09 10:53:13;;;;;;;1.97;1.90;;;24.10;70.70;;;;;;5070798;28;43467;-74
2023/07/09 10:55:45;;;;;;;1.93;1.93;;;24.00;70.60;;;;;;5079900;28;43740;-74
2023/07/09 10:58:21;;;;;;;1.80;1.80;;;24.00;70.90;;;;;;5069612;28;43596;-74
2023/07/09 11:00:51;;;;;;;2.20;2.20;;;24.00;70.90;;;;;;5081223;28;43608;-73
2023/07/09 11:03:20;;;;;;;2.13;2.10;;;24.00;70.90;;;;;;5062469;28;43403;-73
2023/07/09 11:05:49;;;;;;;2.23;2.23;;;24.00;71.00;;;;;;5085980;28;43448;-73
2023/07/09 11:08:21;;;;;;;1.83;1.83;;;24.00;71.10;;;;;;5054865;28;45273;-74
2023/07/09 11:10:51;;;;;;;2.23;2.23;;;24.00;71.20;;;;;;5070407;28;43419;-74
2023/07/09 11:13:20;;;;;;;2.37;1.90;;;24.00;70.70;;;;;;5069119;28;43547;-75
2023/07/09 11:15:49;;;;;;;2.33;2.10;;;24.10;70.30;;;;;;5084045;28;44000;-74
2023/07/09 11:18:21;;;;;;;3.30;2.20;;;24.30;70.10;;;;;;5069750;28;44012;-74
2023/07/09 11:20:56;;;;;;;2.33;2.13;;;24.30;69.80;;;;;;5060950;28;44792;-74
2023/07/09 11:23:25;;;;;;;2.20;2.10;;;24.30;69.70;;;;;;5078420;28;43592;-75
2023/07/09 11:26:02;;;;;;;2.53;2.30;;;24.30;69.90;;;;;;5068584;28;44020;-75
2023/07/09 11:28:34;;;;;;;12.87;2.57;;;24.20;69.50;;;;;;5077518;28;44797;-74
2023/07/09 11:31:06;;;;;;;2.27;2.17;;;24.20;69.60;;;;;;5071137;28;43487;-74
2023/07/09 11:33:34;;;;;;;3.87;2.30;;;24.20;69.90;;;;;;5067095;28;43340;-73
2023/07/09 11:36:11;;;;;;;2.37;2.17;;;24.10;70.00;;;;;;5063116;28;43919;-74
2023/07/09 11:38:46;;;;;;;6.13;2.33;;;24.10;70.10;;;;;;5069010;28;43598;-74
2023/07/09 11:41:34;;;;;;;2.50;2.20;;;24.10;70.00;;;;;;5063580;28;44839;-75
2023/07/09 11:44:05;;;;;;;5.83;2.33;;;24.20;69.90;;;;;;5059696;28;43896;-75
2023/07/09 11:46:33;;;;;;;2.47;2.27;;;24.20;69.80;;;;;;5070284;28;43360;-75
2023/07/09 11:49:02;;;;;;;3.57;2.30;;;24.20;69.90;;;;;;5067239;28;43584;-74
2023/07/09 11:51:35;;;;;;;3.63;2.50;;;24.10;70.00;;;;;;5060550;28;43377;-75
2023/07/09 11:54:04;;;;;;;2.40;2.28;;;24.10;70.00;;;;;;5075146;28;43364;-76
2023/07/09 11:56:33;;;;;;;4.27;2.30;;;24.10;70.10;;;;;;5079682;28;44224;-75
2023/07/09 11:59:01;;;;;;;5.17;2.50;;;24.10;70.10;;;;;;5083058;28;43945;-74
2023/07/09 12:01:31;;;;;;;5.17;2.37;;;24.10;70.40;;;;;;5082636;28;43490;-75
2023/07/09 12:03:59;;;;;;;4.63;2.23;;;24.10;70.40;;;;;;5086616;28;43363;-75
2023/07/09 12:06:28;;;;;;;4.83;2.60;;;24.10;70.40;;;;;;5064469;28;43474;-75
2023/07/09 12:08:56;;;;;;;4.20;2.37;;;24.10;70.50;;;;;;5070223;28;46264;-75
2023/07/09 12:11:26;;;;;;;3.57;2.40;;;24.00;70.60;;;;;;5083924;28;43838;-75
2023/07/09 12:13:54;;;;;;;2.70;2.23;;;24.00;70.70;;;;;;5072750;28;43596;-75
2023/07/09 12:16:24;;;;;;;4.23;2.60;;;24.00;70.60;;;;;;5068873;28;43423;-74
2023/07/09 12:18:52;;;;;;;2.80;2.20;;;24.00;70.70;;;;;;5067273;28;43912;-75
2023/07/09 12:21:20;;;;;;;2.67;2.40;;;24.00;70.70;;;;;;5061123;28;44372;-75
2023/07/09 12:23:48;;;;;;;3.30;2.40;;;24.00;70.90;;;;;;5081937;28;43906;-75
2023/07/09 12:26:17;;;;;;;7.50;2.63;;;23.90;70.80;;;;;;5073583;28;43423;-75
2023/07/09 12:28:52;;;;;;;3.13;2.73;;;24.00;70.60;;;;;;5080498;28;43936;-74
2023/07/09 12:31:23;;;;;;;3.90;2.37;;;24.10;70.20;;;;;;5062263;28;45448;-74
2023/07/09 12:33:53;;;;;;;6.00;2.30;;;24.30;70.00;;;;;;5075067;28;43805;-74
2023/07/09 12:36:21;;;;;;;2.70;2.50;;;24.30;69.60;;;;;;5069077;28;43460;-75
2023/07/09 12:38:50;;;;;;;2.60;2.40;;;24.30;69.60;;;;;;5067666;28;45687;-74
2023/07/09 12:41:21;;;;;;;5.53;2.40;;;24.30;69.70;;;;;;5066962;28;44305;-74
2023/07/09 12:43:50;;;;;;;7.20;2.50;;;24.20;69.90;;;;;;5068319;28;44031;-73
2023/07/09 12:46:19;;;;;;;3.00;2.40;;;24.20;70.00;;;;;;5061865;28;43743;-74
2023/07/09 12:48:47;;;;;;;2.73;2.53;;;24.20;70.10;;;;;;5088191;27;43861;-73
2023/07/09 12:51:17;;;;;;;5.87;2.73;;;24.10;70.10;;;;;;5081434;28;43464;-74
2023/07/09 12:53:45;;;;;;;2.90;2.70;;;24.10;70.40;;;;;;5076503;28;43395;-74
2023/07/09 12:56:14;;;;;;;4.73;2.20;;;24.00;70.40;;;;;;5065085;28;43510;-75
2023/07/09 12:58:42;;;;;;;2.60;2.40;;;24.00;70.50;;;;;;5084547;28;44009;-74
2023/07/09 13:01:17;;;;;;;3.87;2.37;;;24.00;70.50;;;;;;5067034;28;45106;-73